Magnolia Square, Florida
Current Conditions -  °F | °C
As of 7:53 PM on Friday 28 Nov 2014 (Local Time) from KMCO Reporting Station
Clear Clear  
Wind Chill: 52°   Ceiling: Unl
Heat Index: 52°   Visibility: 10mi
Dew Point: 44°   Wind: 9mph
Humidity: 74%   Direction: 350°N
Pressure: 30.29"   Gusts: NA
Location:  28.2734°N, 81.1262°W
Report Text: KMCO 290053Z 35008KT 10SM CLR 11/07 A3029 RMK AO2 SLP256 T01110067
Loading
Personal Weather Stations






























Interactive Weather Map New forecast layout! Learn more

10-Day Weather Forecast

Advertisements
Track Severe Weather on mobile